sensor_id;sensor_type;location;lat;lon;timestamp;P1;durP1;ratioP1;P2;durP2;ratioP2
19414;SDS011;9843;48.882;12.592;2024-02-23T00:01:25;45.10;;;30.60;;
19414;SDS011;9843;48.882;12.592;2024-02-23T00:03:53;49.87;;;30.30;;
19414;SDS011;9843;48.882;12.592;2024-02-23T00:06:20;45.40;;;29.30;;
19414;SDS011;9843;48.882;12.592;2024-02-23T00:08:52;42.80;;;27.73;;
19414;SDS011;9843;48.882;12.592;2024-02-23T00:11:19;44.03;;;28.70;;
19414;SDS011;9843;48.882;12.592;2024-02-23T00:13:46;33.23;;;22.47;;
19414;SDS011;9843;48.882;12.592;2024-02-23T00:16:14;20.87;;;15.90;;
19414;SDS011;9843;48.882;12.592;2024-02-23T00:18:42;13.03;;;10.50;;
19414;SDS011;9843;48.882;12.592;2024-02-23T00:21:09;16.17;;;10.77;;
19414;SDS011;9843;48.882;12.592;2024-02-23T00:23:36;13.63;;;9.07;;
19414;SDS011;9843;48.882;12.592;2024-02-23T00:26:05;8.00;;;6.63;;
19414;SDS011;9843;48.882;12.592;2024-02-23T00:28:32;6.50;;;5.23;;
19414;SDS011;9843;48.882;12.592;2024-02-23T00:30:59;2.67;;;2.47;;
19414;SDS011;9843;48.882;12.592;2024-02-23T00:33:26;1.90;;;1.80;;
19414;SDS011;9843;48.882;12.592;2024-02-23T00:35:54;4.43;;;2.40;;
19414;SDS011;9843;48.882;12.592;2024-02-23T00:38:22;3.77;;;2.27;;
19414;SDS011;9843;48.882;12.592;2024-02-23T00:40:49;2.20;;;2.00;;
19414;SDS011;9843;48.882;12.592;2024-02-23T00:43:16;3.17;;;2.37;;
19414;SDS011;9843;48.882;12.592;2024-02-23T00:45:43;2.50;;;2.30;;
19414;SDS011;9843;48.882;12.592;2024-02-23T00:48:10;3.90;;;2.33;;
19414;SDS011;9843;48.882;12.592;2024-02-23T00:50:38;2.20;;;2.10;;
19414;SDS011;9843;48.882;12.592;2024-02-23T00:53:07;4.67;;;2.33;;
19414;SDS011;9843;48.882;12.592;2024-02-23T00:55:34;2.60;;;2.40;;
19414;SDS011;9843;48.882;12.592;2024-02-23T00:58:01;2.30;;;2.20;;
19414;SDS011;9843;48.882;12.592;2024-02-23T01:00:28;2.47;;;2.37;;
19414;SDS011;9843;48.882;12.592;2024-02-23T01:02:55;3.50;;;2.60;;
19414;SDS011;9843;48.882;12.592;2024-02-23T01:05:24;3.57;;;3.07;;
19414;SDS011;9843;48.882;12.592;2024-02-23T01:07:52;4.00;;;3.70;;
19414;SDS011;9843;48.882;12.592;2024-02-23T01:10:20;4.47;;;4.07;;
19414;SDS011;9843;48.882;12.592;2024-02-23T01:12:48;4.23;;;3.90;;
19414;SDS011;9843;48.882;12.592;2024-02-23T01:15:15;5.00;;;4.17;;
19414;SDS011;9843;48.882;12.592;2024-02-23T01:17:42;5.07;;;4.60;;
19414;SDS011;9843;48.882;12.592;2024-02-23T01:20:09;6.00;;;5.17;;
19414;SDS011;9843;48.882;12.592;2024-02-23T01:22:36;7.13;;;5.87;;
19414;SDS011;9843;48.882;12.592;2024-02-23T01:25:04;6.17;;;5.50;;
19414;SDS011;9843;48.882;12.592;2024-02-23T01:27:33;7.60;;;6.60;;
19414;SDS011;9843;48.882;12.592;2024-02-23T01:30:00;7.33;;;6.63;;
19414;SDS011;9843;48.882;12.592;2024-02-23T01:32:27;8.07;;;6.43;;
19414;SDS011;9843;48.882;12.592;2024-02-23T01:34:54;9.03;;;8.10;;
19414;SDS011;9843;48.882;12.592;2024-02-23T01:37:21;8.00;;;6.93;;
19414;SDS011;9843;48.882;12.592;2024-02-23T01:39:48;7.17;;;6.17;;
19414;SDS011;9843;48.882;12.592;2024-02-23T01:42:15;17.37;;;6.60;;
19414;SDS011;9843;48.882;12.592;2024-02-23T01:44:44;5.33;;;4.70;;
19414;SDS011;9843;48.882;12.592;2024-02-23T01:47:11;4.97;;;4.57;;
19414;SDS011;9843;48.882;12.592;2024-02-23T01:49:38;6.10;;;4.60;;
19414;SDS011;9843;48.882;12.592;2024-02-23T01:52:05;4.30;;;4.00;;
19414;SDS011;9843;48.882;12.592;2024-02-23T01:54:35;6.93;;;4.10;;
19414;SDS011;9843;48.882;12.592;2024-02-23T01:57:02;3.10;;;2.90;;
19414;SDS011;9843;48.882;12.592;2024-02-23T01:59:29;2.53;;;2.33;;
19414;SDS011;9843;48.882;12.592;2024-02-23T02:01:57;3.43;;;3.13;;
19414;SDS011;9843;48.882;12.592;2024-02-23T02:04:25;3.00;;;2.87;;
19414;SDS011;9843;48.882;12.592;2024-02-23T02:06:52;2.07;;;1.97;;
19414;SDS011;9843;48.882;12.592;2024-02-23T02:09:19;1.80;;;1.70;;
19414;SDS011;9843;48.882;12.592;2024-02-23T02:11:46;2.23;;;1.93;;
19414;SDS011;9843;48.882;12.592;2024-02-23T02:14:13;1.77;;;1.67;;
19414;SDS011;9843;48.882;12.592;2024-02-23T02:16:40;2.33;;;1.80;;
19414;SDS011;9843;48.882;12.592;2024-02-23T02:19:10;1.77;;;1.67;;
19414;SDS011;9843;48.882;12.592;2024-02-23T02:21:37;1.70;;;1.60;;
19414;SDS011;9843;48.882;12.592;2024-02-23T02:24:06;2.07;;;1.70;;
19414;SDS011;9843;48.882;12.592;2024-02-23T02:26:34;1.70;;;1.60;;
19414;SDS011;9843;48.882;12.592;2024-02-23T02:29:01;1.80;;;1.73;;
19414;SDS011;9843;48.882;12.592;2024-02-23T02:31:29;3.03;;;1.57;;
19414;SDS011;9843;48.882;12.592;2024-02-23T02:34:01;1.97;;;1.87;;
19414;SDS011;9843;48.882;12.592;2024-02-23T02:36:30;1.57;;;1.47;;
19414;SDS011;9843;48.882;12.592;2024-02-23T02:38:57;1.60;;;1.60;;
19414;SDS011;9843;48.882;12.592;2024-02-23T02:41:24;1.70;;;1.70;;
19414;SDS011;9843;48.882;12.592;2024-02-23T02:43:54;3.23;;;1.80;;
19414;SDS011;9843;48.882;12.592;2024-02-23T02:46:21;1.93;;;1.70;;
19414;SDS011;9843;48.882;12.592;2024-02-23T02:48:50;1.83;;;1.73;;
19414;SDS011;9843;48.882;12.592;2024-02-23T02:51:17;2.80;;;1.67;;
19414;SDS011;9843;48.882;12.592;2024-02-23T02:53:45;3.03;;;1.97;;
19414;SDS011;9843;48.882;12.592;2024-02-23T02:56:12;1.60;;;1.60;;
19414;SDS011;9843;48.882;12.592;2024-02-23T02:58:39;1.80;;;1.80;;
19414;SDS011;9843;48.882;12.592;2024-02-23T03:01:06;1.80;;;1.70;;
19414;SDS011;9843;48.882;12.592;2024-02-23T03:03:34;1.60;;;1.60;;
19414;SDS011;9843;48.882;12.592;2024-02-23T03:06:01;1.80;;;1.70;;
19414;SDS011;9843;48.882;12.592;2024-02-23T03:08:28;1.73;;;1.70;;
19414;SDS011;9843;48.882;12.592;2024-02-23T03:10:58;1.77;;;1.70;;
19414;SDS011;9843;48.882;12.592;2024-02-23T03:13:25;2.50;;;1.80;;
19414;SDS011;9843;48.882;12.592;2024-02-23T03:15:52;2.93;;;2.73;;
19414;SDS011;9843;48.882;12.592;2024-02-23T03:18:19;2.00;;;1.80;;
19414;SDS011;9843;48.882;12.592;2024-02-23T03:20:46;1.57;;;1.57;;
19414;SDS011;9843;48.882;12.592;2024-02-23T03:23:13;2.20;;;2.00;;
19414;SDS011;9843;48.882;12.592;2024-02-23T03:25:40;1.80;;;1.70;;
19414;SDS011;9843;48.882;12.592;2024-02-23T03:28:09;1.80;;;1.70;;
19414;SDS011;9843;48.882;12.592;2024-02-23T03:30:35;1.70;;;1.70;;
19414;SDS011;9843;48.882;12.592;2024-02-23T03:33:02;1.87;;;1.77;;
19414;SDS011;9843;48.882;12.592;2024-02-23T03:35:29;1.80;;;1.70;;
19414;SDS011;9843;48.882;12.592;2024-02-23T03:37:56;1.60;;;1.60;;
19414;SDS011;9843;48.882;12.592;2024-02-23T03:40:24;3.13;;;1.90;;
19414;SDS011;9843;48.882;12.592;2024-02-23T03:42:51;3.50;;;1.60;;
19414;SDS011;9843;48.882;12.592;2024-02-23T03:45:19;2.50;;;1.73;;
19414;SDS011;9843;48.882;12.592;2024-02-23T03:47:46;2.00;;;1.90;;
19414;SDS011;9843;48.882;12.592;2024-02-23T03:50:14;1.90;;;1.80;;
19414;SDS011;9843;48.882;12.592;2024-02-23T03:52:41;3.03;;;1.87;;
19414;SDS011;9843;48.882;12.592;2024-02-23T03:55:08;2.00;;;1.90;;
19414;SDS011;9843;48.882;12.592;2024-02-23T03:57:35;2.00;;;1.90;;
19414;SDS011;9843;48.882;12.592;2024-02-23T04:00:03;1.87;;;1.80;;
19414;SDS011;9843;48.882;12.592;2024-02-23T04:02:32;2.27;;;2.10;;
19414;SDS011;9843;48.882;12.592;2024-02-23T04:04:59;1.90;;;1.80;;
19414;SDS011;9843;48.882;12.592;2024-02-23T04:07:27;1.80;;;1.70;;
19414;SDS011;9843;48.882;12.592;2024-02-23T04:09:54;1.80;;;1.80;;
19414;SDS011;9843;48.882;12.592;2024-02-23T04:12:21;1.73;;;1.73;;
19414;SDS011;9843;48.882;12.592;2024-02-23T04:14:50;2.07;;;1.97;;
19414;SDS011;9843;48.882;12.592;2024-02-23T04:17:17;2.07;;;1.90;;
19414;SDS011;9843;48.882;12.592;2024-02-23T04:19:46;3.40;;;1.80;;
19414;SDS011;9843;48.882;12.592;2024-02-23T04:22:13;2.20;;;2.10;;
19414;SDS011;9843;48.882;12.592;2024-02-23T04:24:40;2.23;;;2.10;;
19414;SDS011;9843;48.882;12.592;2024-02-23T04:27:08;2.00;;;1.90;;
19414;SDS011;9843;48.882;12.592;2024-02-23T04:29:35;1.93;;;1.83;;
19414;SDS011;9843;48.882;12.592;2024-02-23T04:32:02;2.63;;;2.00;;
19414;SDS011;9843;48.882;12.592;2024-02-23T04:34:29;1.90;;;1.80;;
19414;SDS011;9843;48.882;12.592;2024-02-23T04:36:58;5.03;;;2.67;;
19414;SDS011;9843;48.882;12.592;2024-02-23T04:39:25;2.30;;;2.10;;
19414;SDS011;9843;48.882;12.592;2024-02-23T04:41:52;2.27;;;2.10;;
19414;SDS011;9843;48.882;12.592;2024-02-23T04:44:19;2.03;;;1.93;;
19414;SDS011;9843;48.882;12.592;2024-02-23T04:46:46;4.40;;;3.77;;
19414;SDS011;9843;48.882;12.592;2024-02-23T04:49:14;2.60;;;2.50;;
19414;SDS011;9843;48.882;12.592;2024-02-23T04:51:41;13.13;;;7.27;;
19414;SDS011;9843;48.882;12.592;2024-02-23T04:54:10;4.27;;;2.63;;
19414;SDS011;9843;48.882;12.592;2024-02-23T04:56:37;2.40;;;2.30;;
19414;SDS011;9843;48.882;12.592;2024-02-23T04:59:04;7.53;;;4.00;;
19414;SDS011;9843;48.882;12.592;2024-02-23T05:01:34;2.70;;;2.50;;
19414;SDS011;9843;48.882;12.592;2024-02-23T05:04:02;2.87;;;2.57;;
19414;SDS011;9843;48.882;12.592;2024-02-23T05:06:29;7.07;;;3.27;;
19414;SDS011;9843;48.882;12.592;2024-02-23T05:08:56;48.63;;;22.07;;
19414;SDS011;9843;48.882;12.592;2024-02-23T05:11:24;26.33;;;11.03;;
19414;SDS011;9843;48.882;12.592;2024-02-23T05:13:51;19.20;;;9.77;;
19414;SDS011;9843;48.882;12.592;2024-02-23T05:16:18;4.60;;;3.33;;
19414;SDS011;9843;48.882;12.592;2024-02-23T05:18:45;2.90;;;2.33;;
19414;SDS011;9843;48.882;12.592;2024-02-23T05:21:14;2.20;;;2.10;;
19414;SDS011;9843;48.882;12.592;2024-02-23T05:23:42;2.10;;;2.00;;
19414;SDS011;9843;48.882;12.592;2024-02-23T05:26:11;1.93;;;1.87;;
19414;SDS011;9843;48.882;12.592;2024-02-23T05:28:39;3.17;;;2.43;;
19414;SDS011;9843;48.882;12.592;2024-02-23T05:31:06;2.50;;;2.30;;
19414;SDS011;9843;48.882;12.592;2024-02-23T05:33:33;2.37;;;2.13;;
19414;SDS011;9843;48.882;12.592;2024-02-23T05:36:01;3.80;;;2.50;;
19414;SDS011;9843;48.882;12.592;2024-02-23T05:38:28;2.40;;;2.20;;
19414;SDS011;9843;48.882;12.592;2024-02-23T05:40:56;10.23;;;3.40;;
19414;SDS011;9843;48.882;12.592;2024-02-23T05:43:23;2.67;;;2.57;;
19414;SDS011;9843;48.882;12.592;2024-02-23T05:45:51;3.10;;;2.90;;
19414;SDS011;9843;48.882;12.592;2024-02-23T05:48:22;3.03;;;2.77;;
19414;SDS011;9843;48.882;12.592;2024-02-23T05:50:49;2.13;;;2.03;;
19414;SDS011;9843;48.882;12.592;2024-02-23T05:53:16;2.30;;;2.20;;
19414;SDS011;9843;48.882;12.592;2024-02-23T05:55:43;2.20;;;2.10;;
19414;SDS011;9843;48.882;12.592;2024-02-23T05:58:10;4.00;;;3.10;;
19414;SDS011;9843;48.882;12.592;2024-02-23T06:00:38;4.30;;;3.90;;
19414;SDS011;9843;48.882;12.592;2024-02-23T06:03:07;17.13;;;10.47;;
19414;SDS011;9843;48.882;12.592;2024-02-23T06:05:34;10.33;;;5.03;;
19414;SDS011;9843;48.882;12.592;2024-02-23T06:08:01;4.90;;;4.40;;
19414;SDS011;9843;48.882;12.592;2024-02-23T06:10:28;6.73;;;5.63;;
19414;SDS011;9843;48.882;12.592;2024-02-23T06:12:55;16.63;;;10.10;;
19414;SDS011;9843;48.882;12.592;2024-02-23T06:15:22;28.20;;;15.47;;
19414;SDS011;9843;48.882;12.592;2024-02-23T06:17:49;12.97;;;9.03;;
19414;SDS011;9843;48.882;12.592;2024-02-23T06:20:18;7.20;;;4.67;;
19414;SDS011;9843;48.882;12.592;2024-02-23T06:22:46;5.23;;;4.03;;
19414;SDS011;9843;48.882;12.592;2024-02-23T06:25:13;4.73;;;3.73;;
19414;SDS011;9843;48.882;12.592;2024-02-23T06:27:40;3.20;;;2.97;;
19414;SDS011;9843;48.882;12.592;2024-02-23T06:30:07;3.20;;;3.00;;
19414;SDS011;9843;48.882;12.592;2024-02-23T06:32:36;6.00;;;2.90;;
19414;SDS011;9843;48.882;12.592;2024-02-23T06:35:03;2.53;;;2.33;;
19414;SDS011;9843;48.882;12.592;2024-02-23T06:37:32;2.90;;;2.70;;
19414;SDS011;9843;48.882;12.592;2024-02-23T06:39:59;3.33;;;2.80;;
19414;SDS011;9843;48.882;12.592;2024-02-23T06:42:26;2.47;;;2.20;;
19414;SDS011;9843;48.882;12.592;2024-02-23T06:44:53;3.00;;;2.80;;
19414;SDS011;9843;48.882;12.592;2024-02-23T06:47:20;3.97;;;2.70;;
19414;SDS011;9843;48.882;12.592;2024-02-23T06:49:47;4.57;;;3.40;;
19414;SDS011;9843;48.882;12.592;2024-02-23T06:52:14;4.00;;;2.97;;
19414;SDS011;9843;48.882;12.592;2024-02-23T06:54:42;4.47;;;3.33;;
19414;SDS011;9843;48.882;12.592;2024-02-23T06:57:10;2.43;;;2.30;;
19414;SDS011;9843;48.882;12.592;2024-02-23T06:59:37;3.13;;;2.73;;
19414;SDS011;9843;48.882;12.592;2024-02-23T07:02:04;4.93;;;3.27;;
19414;SDS011;9843;48.882;12.592;2024-02-23T07:04:31;3.50;;;3.20;;
19414;SDS011;9843;48.882;12.592;2024-02-23T07:06:59;3.10;;;2.80;;
19414;SDS011;9843;48.882;12.592;2024-02-23T07:09:31;5.50;;;3.80;;
19414;SDS011;9843;48.882;12.592;2024-02-23T07:12:00;3.43;;;2.73;;
19414;SDS011;9843;48.882;12.592;2024-02-23T07:14:27;4.27;;;3.47;;
19414;SDS011;9843;48.882;12.592;2024-02-23T07:16:54;5.03;;;3.70;;
19414;SDS011;9843;48.882;12.592;2024-02-23T07:19:21;4.17;;;3.80;;
19414;SDS011;9843;48.882;12.592;2024-02-23T07:21:48;5.17;;;3.27;;
19414;SDS011;9843;48.882;12.592;2024-02-23T07:24:15;4.53;;;3.13;;
19414;SDS011;9843;48.882;12.592;2024-02-23T07:26:42;3.83;;;3.50;;
19414;SDS011;9843;48.882;12.592;2024-02-23T07:29:11;3.60;;;2.33;;
19414;SDS011;9843;48.882;12.592;2024-02-23T07:31:38;3.60;;;2.93;;
19414;SDS011;9843;48.882;12.592;2024-02-23T07:34:05;2.40;;;2.30;;
19414;SDS011;9843;48.882;12.592;2024-02-23T07:36:33;2.00;;;2.00;;
19414;SDS011;9843;48.882;12.592;2024-02-23T07:39:00;2.20;;;2.10;;
19414;SDS011;9843;48.882;12.592;2024-02-23T07:41:28;2.33;;;2.23;;
19414;SDS011;9843;48.882;12.592;2024-02-23T07:43:55;2.40;;;2.20;;
19414;SDS011;9843;48.882;12.592;2024-02-23T07:46:24;2.63;;;2.43;;
19414;SDS011;9843;48.882;12.592;2024-02-23T07:48:53;2.30;;;2.20;;
19414;SDS011;9843;48.882;12.592;2024-02-23T07:51:20;3.40;;;3.20;;
19414;SDS011;9843;48.882;12.592;2024-02-23T07:53:48;2.50;;;2.20;;
19414;SDS011;9843;48.882;12.592;2024-02-23T07:56:15;2.23;;;2.13;;
19414;SDS011;9843;48.882;12.592;2024-02-23T07:58:42;2.50;;;2.30;;
19414;SDS011;9843;48.882;12.592;2024-02-23T08:01:09;2.60;;;2.40;;
19414;SDS011;9843;48.882;12.592;2024-02-23T08:03:37;2.70;;;2.50;;
19414;SDS011;9843;48.882;12.592;2024-02-23T08:06:04;2.60;;;2.50;;
19414;SDS011;9843;48.882;12.592;2024-02-23T08:08:31;2.50;;;2.40;;
19414;SDS011;9843;48.882;12.592;2024-02-23T08:11:00;1.93;;;1.83;;
19414;SDS011;9843;48.882;12.592;2024-02-23T08:13:27;4.87;;;2.67;;
19414;SDS011;9843;48.882;12.592;2024-02-23T08:15:54;1.90;;;1.80;;
19414;SDS011;9843;48.882;12.592;2024-02-23T08:18:21;1.90;;;1.80;;
19414;SDS011;9843;48.882;12.592;2024-02-23T08:20:49;2.50;;;2.30;;
19414;SDS011;9843;48.882;12.592;2024-02-23T08:23:17;2.30;;;2.20;;
19414;SDS011;9843;48.882;12.592;2024-02-23T08:25:45;2.30;;;2.20;;
19414;SDS011;9843;48.882;12.592;2024-02-23T08:28:12;3.23;;;1.70;;
19414;SDS011;9843;48.882;12.592;2024-02-23T08:30:39;3.10;;;2.90;;
19414;SDS011;9843;48.882;12.592;2024-02-23T08:33:06;2.30;;;2.10;;
19414;SDS011;9843;48.882;12.592;2024-02-23T08:35:34;1.87;;;1.77;;
19414;SDS011;9843;48.882;12.592;2024-02-23T08:38:03;2.17;;;2.07;;
19414;SDS011;9843;48.882;12.592;2024-02-23T08:40:30;2.30;;;2.20;;
19414;SDS011;9843;48.882;12.592;2024-02-23T08:42:57;2.20;;;2.00;;
19414;SDS011;9843;48.882;12.592;2024-02-23T08:45:24;2.87;;;2.67;;
19414;SDS011;9843;48.882;12.592;2024-02-23T08:47:51;2.20;;;2.10;;
19414;SDS011;9843;48.882;12.592;2024-02-23T08:50:18;2.00;;;1.90;;
19414;SDS011;9843;48.882;12.592;2024-02-23T08:52:46;2.67;;;2.13;;
19414;SDS011;9843;48.882;12.592;2024-02-23T08:55:14;2.00;;;1.90;;
19414;SDS011;9843;48.882;12.592;2024-02-23T08:57:41;2.23;;;2.03;;
19414;SDS011;9843;48.882;12.592;2024-02-23T09:00:09;2.50;;;2.30;;
19414;SDS011;9843;48.882;12.592;2024-02-23T09:02:36;3.90;;;2.90;;
19414;SDS011;9843;48.882;12.592;2024-02-23T09:05:04;4.07;;;3.40;;
19414;SDS011;9843;48.882;12.592;2024-02-23T09:07:31;2.40;;;2.17;;
19414;SDS011;9843;48.882;12.592;2024-02-23T09:09:58;2.00;;;1.90;;
19414;SDS011;9843;48.882;12.592;2024-02-23T09:12:27;3.50;;;1.83;;
19414;SDS011;9843;48.882;12.592;2024-02-23T09:14:54;1.90;;;1.80;;
19414;SDS011;9843;48.882;12.592;2024-02-23T09:17:21;1.67;;;1.60;;
19414;SDS011;9843;48.882;12.592;2024-02-23T09:19:48;3.47;;;2.20;;
19414;SDS011;9843;48.882;12.592;2024-02-23T09:22:15;2.00;;;1.90;;
19414;SDS011;9843;48.882;12.592;2024-02-23T09:24:43;1.83;;;1.73;;
19414;SDS011;9843;48.882;12.592;2024-02-23T09:27:10;2.00;;;1.90;;
19414;SDS011;9843;48.882;12.592;2024-02-23T09:29:40;2.03;;;1.87;;
19414;SDS011;9843;48.882;12.592;2024-02-23T09:32:07;1.97;;;1.80;;
19414;SDS011;9843;48.882;12.592;2024-02-23T09:34:34;1.80;;;1.80;;
19414;SDS011;9843;48.882;12.592;2024-02-23T09:37:01;2.20;;;2.10;;
19414;SDS011;9843;48.882;12.592;2024-02-23T09:39:28;3.53;;;2.00;;
19414;SDS011;9843;48.882;12.592;2024-02-23T09:41:56;1.70;;;1.60;;
19414;SDS011;9843;48.882;12.592;2024-02-23T09:44:23;2.00;;;1.90;;
19414;SDS011;9843;48.882;12.592;2024-02-23T09:46:53;5.57;;;3.50;;
19414;SDS011;9843;48.882;12.592;2024-02-23T09:49:21;2.43;;;2.23;;
19414;SDS011;9843;48.882;12.592;2024-02-23T09:51:48;4.40;;;3.30;;
19414;SDS011;9843;48.882;12.592;2024-02-23T09:54:15;6.57;;;3.93;;
19414;SDS011;9843;48.882;12.592;2024-02-23T09:56:42;4.00;;;3.43;;
19414;SDS011;9843;48.882;12.592;2024-02-23T09:59:10;2.10;;;2.00;;
19414;SDS011;9843;48.882;12.592;2024-02-23T10:01:38;3.23;;;3.03;;
19414;SDS011;9843;48.882;12.592;2024-02-23T10:04:06;6.97;;;3.90;;
19414;SDS011;9843;48.882;12.592;2024-02-23T10:06:33;5.20;;;3.20;;
19414;SDS011;9843;48.882;12.592;2024-02-23T10:09:00;3.13;;;2.83;;
19414;SDS011;9843;48.882;12.592;2024-02-23T10:11:29;4.07;;;3.53;;
19414;SDS011;9843;48.882;12.592;2024-02-23T10:13:56;5.50;;;2.63;;
19414;SDS011;9843;48.882;12.592;2024-02-23T10:16:23;7.03;;;4.93;;
19414;SDS011;9843;48.882;12.592;2024-02-23T10:18:50;3.47;;;3.20;;
19414;SDS011;9843;48.882;12.592;2024-02-23T10:21:19;3.17;;;2.57;;
19414;SDS011;9843;48.882;12.592;2024-02-23T10:23:46;3.93;;;3.53;;
19414;SDS011;9843;48.882;12.592;2024-02-23T10:26:15;2.90;;;2.60;;
19414;SDS011;9843;48.882;12.592;2024-02-23T10:28:44;3.70;;;2.50;;
19414;SDS011;9843;48.882;12.592;2024-02-23T10:31:11;2.57;;;2.40;;
19414;SDS011;9843;48.882;12.592;2024-02-23T10:33:38;2.30;;;2.20;;
19414;SDS011;9843;48.882;12.592;2024-02-23T10:36:06;3.00;;;2.70;;
19414;SDS011;9843;48.882;12.592;2024-02-23T10:38:35;2.30;;;2.20;;
19414;SDS011;9843;48.882;12.592;2024-02-23T10:41:05;2.13;;;2.03;;
19414;SDS011;9843;48.882;12.592;2024-02-23T10:43:36;5.17;;;2.53;;
19414;SDS011;9843;48.882;12.592;2024-02-23T10:46:06;3.13;;;2.30;;
19414;SDS011;9843;48.882;12.592;2024-02-23T10:48:38;5.40;;;2.97;;
19414;SDS011;9843;48.882;12.592;2024-02-23T10:51:05;3.47;;;3.17;;
19414;SDS011;9843;48.882;12.592;2024-02-23T10:53:35;2.50;;;2.30;;
19414;SDS011;9843;48.882;12.592;2024-02-23T10:56:03;2.63;;;2.17;;
19414;SDS011;9843;48.882;12.592;2024-02-23T10:58:31;2.00;;;1.90;;
19414;SDS011;9843;48.882;12.592;2024-02-23T11:00:58;3.57;;;3.30;;
19414;SDS011;9843;48.882;12.592;2024-02-23T11:03:27;3.63;;;2.27;;
19414;SDS011;9843;48.882;12.592;2024-02-23T11:05:55;3.37;;;2.50;;
19414;SDS011;9843;48.882;12.592;2024-02-23T11:08:22;6.47;;;2.20;;
19414;SDS011;9843;48.882;12.592;2024-02-23T11:10:50;2.20;;;2.00;;
19414;SDS011;9843;48.882;12.592;2024-02-23T11:13:18;2.80;;;2.33;;
19414;SDS011;9843;48.882;12.592;2024-02-23T11:15:45;2.00;;;1.90;;
19414;SDS011;9843;48.882;12.592;2024-02-23T11:18:21;2.50;;;2.30;;
19414;SDS011;9843;48.882;12.592;2024-02-23T11:20:53;2.43;;;2.30;;
19414;SDS011;9843;48.882;12.592;2024-02-23T11:23:21;10.23;;;2.90;;
19414;SDS011;9843;48.882;12.592;2024-02-23T11:26:07;5.33;;;2.90;;
19414;SDS011;9843;48.882;12.592;2024-02-23T11:28:41;2.70;;;2.47;;
19414;SDS011;9843;48.882;12.592;2024-02-23T11:31:11;2.67;;;2.47;;
19414;SDS011;9843;48.882;12.592;2024-02-23T11:33:38;2.20;;;2.10;;
19414;SDS011;9843;48.882;12.592;2024-02-23T11:36:06;2.30;;;2.10;;
19414;SDS011;9843;48.882;12.592;2024-02-23T11:38:33;4.67;;;2.90;;
19414;SDS011;9843;48.882;12.592;2024-02-23T11:41:00;2.37;;;2.13;;
19414;SDS011;9843;48.882;12.592;2024-02-23T11:43:30;2.30;;;2.20;;
19414;SDS011;9843;48.882;12.592;2024-02-23T11:45:57;3.17;;;2.73;;
19414;SDS011;9843;48.882;12.592;2024-02-23T11:48:24;2.90;;;2.23;;
19414;SDS011;9843;48.882;12.592;2024-02-23T11:50:51;5.53;;;2.50;;
19414;SDS011;9843;48.882;12.592;2024-02-23T11:53:18;2.50;;;2.30;;
19414;SDS011;9843;48.882;12.592;2024-02-23T11:55:47;2.57;;;2.10;;
19414;SDS011;9843;48.882;12.592;2024-02-23T11:58:15;3.57;;;2.40;;
19414;SDS011;9843;48.882;12.592;2024-02-23T12:00:44;1.97;;;1.87;;
19414;SDS011;9843;48.882;12.592;2024-02-23T12:03:11;2.47;;;2.37;;
19414;SDS011;9843;48.882;12.592;2024-02-23T12:05:38;2.37;;;2.27;;
19414;SDS011;9843;48.882;12.592;2024-02-23T12:08:06;4.27;;;3.10;;
19414;SDS011;9843;48.882;12.592;2024-02-23T12:10:33;3.87;;;2.77;;
19414;SDS011;9843;48.882;12.592;2024-02-23T12:13:01;4.60;;;3.30;;
19414;SDS011;9843;48.882;12.592;2024-02-23T12:15:29;2.73;;;2.40;;
19414;SDS011;9843;48.882;12.592;2024-02-23T12:17:59;2.57;;;2.37;;
19414;SDS011;9843;48.882;12.592;2024-02-23T12:20:26;2.60;;;2.40;;
19414;SDS011;9843;48.882;12.592;2024-02-23T12:22:54;2.67;;;2.47;;
19414;SDS011;9843;48.882;12.592;2024-02-23T12:25:22;2.60;;;2.47;;
19414;SDS011;9843;48.882;12.592;2024-02-23T12:27:53;2.37;;;2.27;;
19414;SDS011;9843;48.882;12.592;2024-02-23T12:30:20;2.23;;;2.13;;
19414;SDS011;9843;48.882;12.592;2024-02-23T12:32:47;2.80;;;2.10;;
19414;SDS011;9843;48.882;12.592;2024-02-23T12:35:16;2.27;;;2.17;;
19414;SDS011;9843;48.882;12.592;2024-02-23T12:37:43;1.90;;;1.80;;
19414;SDS011;9843;48.882;12.592;2024-02-23T12:40:10;2.27;;;2.07;;
19414;SDS011;9843;48.882;12.592;2024-02-23T12:42:38;7.33;;;2.63;;
19414;SDS011;9843;48.882;12.592;2024-02-23T12:45:05;2.00;;;1.97;;
19414;SDS011;9843;48.882;12.592;2024-02-23T12:47:33;2.30;;;2.20;;
19414;SDS011;9843;48.882;12.592;2024-02-23T12:50:00;2.63;;;2.43;;
19414;SDS011;9843;48.882;12.592;2024-02-23T12:52:28;6.30;;;2.83;;
19414;SDS011;9843;48.882;12.592;2024-02-23T12:54:55;2.43;;;2.30;;
19414;SDS011;9843;48.882;12.592;2024-02-23T12:57:22;4.33;;;2.30;;
19414;SDS011;9843;48.882;12.592;2024-02-23T12:59:49;2.80;;;2.60;;
19414;SDS011;9843;48.882;12.592;2024-02-23T13:02:16;2.87;;;2.67;;
19414;SDS011;9843;48.882;12.592;2024-02-23T13:04:44;2.20;;;2.00;;
19414;SDS011;9843;48.882;12.592;2024-02-23T13:07:14;2.50;;;2.30;;
19414;SDS011;9843;48.882;12.592;2024-02-23T13:09:43;3.83;;;3.40;;
19414;SDS011;9843;48.882;12.592;2024-02-23T13:12:10;2.50;;;2.30;;
19414;SDS011;9843;48.882;12.592;2024-02-23T13:14:37;2.30;;;2.10;;
19414;SDS011;9843;48.882;12.592;2024-02-23T13:17:04;2.40;;;2.30;;
19414;SDS011;9843;48.882;12.592;2024-02-23T13:19:31;2.10;;;2.00;;
19414;SDS011;9843;48.882;12.592;2024-02-23T13:21:58;5.90;;;3.10;;
19414;SDS011;9843;48.882;12.592;2024-02-23T13:24:26;3.90;;;2.43;;
19414;SDS011;9843;48.882;12.592;2024-02-23T13:26:54;2.10;;;1.97;;
19414;SDS011;9843;48.882;12.592;2024-02-23T13:29:22;2.67;;;2.47;;
19414;SDS011;9843;48.882;12.592;2024-02-23T13:31:49;2.40;;;2.20;;
19414;SDS011;9843;48.882;12.592;2024-02-23T13:34:16;2.43;;;2.30;;
19414;SDS011;9843;48.882;12.592;2024-02-23T13:36:43;4.70;;;2.90;;
19414;SDS011;9843;48.882;12.592;2024-02-23T13:39:10;2.70;;;2.50;;
19414;SDS011;9843;48.882;12.592;2024-02-23T13:41:38;3.23;;;2.70;;
19414;SDS011;9843;48.882;12.592;2024-02-23T13:44:06;2.93;;;2.63;;
19414;SDS011;9843;48.882;12.592;2024-02-23T13:46:35;3.70;;;3.50;;
19414;SDS011;9843;48.882;12.592;2024-02-23T13:49:02;2.80;;;2.43;;
19414;SDS011;9843;48.882;12.592;2024-02-23T13:51:29;8.10;;;5.83;;
19414;SDS011;9843;48.882;12.592;2024-02-23T13:53:57;5.43;;;2.47;;
19414;SDS011;9843;48.882;12.592;2024-02-23T13:56:24;2.60;;;2.40;;
19414;SDS011;9843;48.882;12.592;2024-02-23T13:58:51;5.00;;;4.37;;
19414;SDS011;9843;48.882;12.592;2024-02-23T14:01:19;4.43;;;3.50;;
19414;SDS011;9843;48.882;12.592;2024-02-23T14:03:46;2.63;;;2.43;;
19414;SDS011;9843;48.882;12.592;2024-02-23T14:06:13;2.90;;;2.70;;
19414;SDS011;9843;48.882;12.592;2024-02-23T14:08:40;2.80;;;2.57;;
19414;SDS011;9843;48.882;12.592;2024-02-23T14:11:09;2.50;;;2.30;;
19414;SDS011;9843;48.882;12.592;2024-02-23T14:13:36;4.80;;;2.60;;
19414;SDS011;9843;48.882;12.592;2024-02-23T14:16:04;4.37;;;3.30;;
19414;SDS011;9843;48.882;12.592;2024-02-23T14:18:32;3.13;;;2.93;;
19414;SDS011;9843;48.882;12.592;2024-02-23T14:21:03;4.40;;;3.53;;
19414;SDS011;9843;48.882;12.592;2024-02-23T14:23:30;5.30;;;4.40;;
19414;SDS011;9843;48.882;12.592;2024-02-23T14:25:58;2.97;;;2.77;;
19414;SDS011;9843;48.882;12.592;2024-02-23T14:28:25;3.87;;;3.50;;
19414;SDS011;9843;48.882;12.592;2024-02-23T14:30:52;9.30;;;5.33;;
19414;SDS011;9843;48.882;12.592;2024-02-23T14:33:19;5.03;;;3.90;;
19414;SDS011;9843;48.882;12.592;2024-02-23T14:35:48;4.07;;;3.20;;
19414;SDS011;9843;48.882;12.592;2024-02-23T14:38:15;2.90;;;2.70;;
19414;SDS011;9843;48.882;12.592;2024-02-23T14:40:42;3.87;;;2.40;;
19414;SDS011;9843;48.882;12.592;2024-02-23T14:43:09;3.87;;;2.37;;
19414;SDS011;9843;48.882;12.592;2024-02-23T14:45:37;2.67;;;2.47;;
19414;SDS011;9843;48.882;12.592;2024-02-23T14:48:04;2.20;;;2.10;;